sensor_id;sensor_type;location;lat;lon;timestamp;pressure;altitude;pressure_sealevel;temperature;humidity
61128;BME280;47013;42.664;23.242;2024-03-02T00:02:12;93395.63;;;7.86;100.00
61128;BME280;47013;42.664;23.242;2024-03-02T00:04:37;93399.06;;;7.90;100.00
61128;BME280;47013;42.664;23.242;2024-03-02T00:07:03;93393.72;;;7.83;100.00
61128;BME280;47013;42.664;23.242;2024-03-02T00:09:29;93396.63;;;7.61;100.00
61128;BME280;47013;42.664;23.242;2024-03-02T00:11:54;93402.19;;;7.44;100.00
61128;BME280;47013;42.664;23.242;2024-03-02T00:14:20;93406.41;;;7.45;100.00
61128;BME280;47013;42.664;23.242;2024-03-02T00:16:45;93392.97;;;7.37;100.00
61128;BME280;47013;42.664;23.242;2024-03-02T00:19:11;93403.22;;;7.57;100.00
61128;BME280;47013;42.664;23.242;2024-03-02T00:21:37;93401.25;;;7.61;100.00
61128;BME280;47013;42.664;23.242;2024-03-02T00:24:18;93410.84;;;7.69;100.00
61128;BME280;47013;42.664;23.242;2024-03-02T00:26:46;93403.75;;;7.82;100.00
61128;BME280;47013;42.664;23.242;2024-03-02T00:29:15;93402.56;;;7.87;100.00
61128;BME280;47013;42.664;23.242;2024-03-02T00:31:41;93398.09;;;7.69;100.00
61128;BME280;47013;42.664;23.242;2024-03-02T00:34:07;93399.16;;;7.79;100.00
61128;BME280;47013;42.664;23.242;2024-03-02T00:36:33;93393.34;;;7.84;100.00
61128;BME280;47013;42.664;23.242;2024-03-02T00:38:58;93396.84;;;7.81;100.00
61128;BME280;47013;42.664;23.242;2024-03-02T00:41:27;93387.09;;;7.91;100.00
61128;BME280;47013;42.664;23.242;2024-03-02T00:44:05;93393.59;;;7.97;100.00
61128;BME280;47013;42.664;23.242;2024-03-02T00:46:38;93380.50;;;7.95;100.00
61128;BME280;47013;42.664;23.242;2024-03-02T00:49:21;93384.31;;;7.98;100.00
61128;BME280;47013;42.664;23.242;2024-03-02T00:51:48;93390.13;;;7.96;100.00
61128;BME280;47013;42.664;23.242;2024-03-02T00:54:20;93384.22;;;7.71;100.00
61128;BME280;47013;42.664;23.242;2024-03-02T00:56:47;93393.69;;;7.86;100.00
61128;BME280;47013;42.664;23.242;2024-03-02T00:59:13;93395.94;;;7.91;100.00
61128;BME280;47013;42.664;23.242;2024-03-02T01:01:38;93388.34;;;7.83;100.00
61128;BME280;47013;42.664;23.242;2024-03-02T01:04:04;93392.59;;;7.80;100.00
61128;BME280;47013;42.664;23.242;2024-03-02T01:06:30;93393.59;;;7.93;100.00
61128;BME280;47013;42.664;23.242;2024-03-02T01:08:55;93390.00;;;8.07;100.00
61128;BME280;47013;42.664;23.242;2024-03-02T01:11:21;93380.72;;;8.12;100.00
61128;BME280;47013;42.664;23.242;2024-03-02T01:13:49;93375.97;;;8.19;100.00
61128;BME280;47013;42.664;23.242;2024-03-02T01:16:15;93384.06;;;8.19;100.00
61128;BME280;47013;42.664;23.242;2024-03-02T01:18:43;93383.31;;;8.19;100.00
61128;BME280;47013;42.664;23.242;2024-03-02T01:21:08;93377.03;;;8.29;100.00
61128;BME280;47013;42.664;23.242;2024-03-02T01:23:34;93375.41;;;8.39;100.00
61128;BME280;47013;42.664;23.242;2024-03-02T01:25:59;93367.19;;;8.46;100.00
61128;BME280;47013;42.664;23.242;2024-03-02T01:28:25;93372.75;;;8.35;100.00
61128;BME280;47013;42.664;23.242;2024-03-02T01:30:50;93362.44;;;8.23;100.00
61128;BME280;47013;42.664;23.242;2024-03-02T01:33:20;93375.09;;;8.29;100.00
61128;BME280;47013;42.664;23.242;2024-03-02T01:35:45;93368.13;;;8.36;100.00
61128;BME280;47013;42.664;23.242;2024-03-02T01:38:11;93365.31;;;8.43;100.00
61128;BME280;47013;42.664;23.242;2024-03-02T01:40:37;93363.34;;;8.47;100.00
61128;BME280;47013;42.664;23.242;2024-03-02T01:43:06;93362.94;;;8.48;100.00
61128;BME280;47013;42.664;23.242;2024-03-02T01:45:33;93357.53;;;8.48;100.00
61128;BME280;47013;42.664;23.242;2024-03-02T01:47:59;93361.78;;;8.49;100.00
61128;BME280;47013;42.664;23.242;2024-03-02T01:50:29;93355.13;;;8.54;100.00
61128;BME280;47013;42.664;23.242;2024-03-02T01:52:58;93349.31;;;8.55;100.00
61128;BME280;47013;42.664;23.242;2024-03-02T01:55:24;93349.31;;;8.55;100.00
61128;BME280;47013;42.664;23.242;2024-03-02T01:57:50;93354.72;;;8.55;100.00
61128;BME280;47013;42.664;23.242;2024-03-02T02:00:22;93355.50;;;8.56;100.00
61128;BME280;47013;42.664;23.242;2024-03-02T02:02:49;93352.78;;;8.56;100.00
61128;BME280;47013;42.664;23.242;2024-03-02T02:05:15;93353.56;;;8.56;100.00
61128;BME280;47013;42.664;23.242;2024-03-02T02:07:41;93349.69;;;8.57;100.00
61128;BME280;47013;42.664;23.242;2024-03-02T02:10:10;93351.94;;;8.63;100.00
61128;BME280;47013;42.664;23.242;2024-03-02T02:12:36;93360.41;;;8.65;100.00
61128;BME280;47013;42.664;23.242;2024-03-02T02:15:02;93353.91;;;8.58;100.00
61128;BME280;47013;42.664;23.242;2024-03-02T02:17:28;93352.22;;;8.41;100.00
61128;BME280;47013;42.664;23.242;2024-03-02T02:19:53;93353.06;;;8.31;100.00
61128;BME280;47013;42.664;23.242;2024-03-02T02:22:19;93353.19;;;8.24;100.00
61128;BME280;47013;42.664;23.242;2024-03-02T02:24:44;93355.00;;;8.31;100.00
61128;BME280;47013;42.664;23.242;2024-03-02T02:27:10;93357.25;;;8.39;100.00
61128;BME280;47013;42.664;23.242;2024-03-02T02:29:36;93348.34;;;8.42;100.00
61128;BME280;47013;42.664;23.242;2024-03-02T02:32:02;93353.25;;;8.51;100.00
61128;BME280;47013;42.664;23.242;2024-03-02T02:34:28;93355.91;;;8.54;100.00
61128;BME280;47013;42.664;23.242;2024-03-02T02:36:53;93355.84;;;8.58;100.00
61128;BME280;47013;42.664;23.242;2024-03-02T02:39:21;93346.19;;;8.61;100.00
61128;BME280;47013;42.664;23.242;2024-03-02T02:41:47;93357.34;;;8.63;100.00
61128;BME280;47013;42.664;23.242;2024-03-02T02:44:13;93352.38;;;8.57;100.00
61128;BME280;47013;42.664;23.242;2024-03-02T02:46:39;93352.34;;;8.61;100.00
61128;BME280;47013;42.664;23.242;2024-03-02T02:49:05;93357.34;;;8.63;100.00
61128;BME280;47013;42.664;23.242;2024-03-02T02:51:30;93358.53;;;8.62;100.00
61128;BME280;47013;42.664;23.242;2024-03-02T02:53:56;93349.25;;;8.63;100.00
61128;BME280;47013;42.664;23.242;2024-03-02T02:56:21;93350.78;;;8.64;100.00
61128;BME280;47013;42.664;23.242;2024-03-02T02:58:47;93354.59;;;8.66;100.00
61128;BME280;47013;42.664;23.242;2024-03-02T03:01:12;93357.66;;;8.68;100.00
61128;BME280;47013;42.664;23.242;2024-03-02T03:03:38;93369.56;;;8.71;100.00
61128;BME280;47013;42.664;23.242;2024-03-02T03:06:03;93356.19;;;8.64;100.00
61128;BME280;47013;42.664;23.242;2024-03-02T03:08:29;93355.75;;;8.65;100.00
61128;BME280;47013;42.664;23.242;2024-03-02T03:10:54;93362.66;;;8.70;100.00
61128;BME280;47013;42.664;23.242;2024-03-02T03:13:20;93360.69;;;8.70;100.00
61128;BME280;47013;42.664;23.242;2024-03-02T03:15:45;93356.81;;;8.71;100.00
61128;BME280;47013;42.664;23.242;2024-03-02T03:18:10;93350.31;;;8.69;100.00
61128;BME280;47013;42.664;23.242;2024-03-02T03:20:36;93351.47;;;8.68;100.00
61128;BME280;47013;42.664;23.242;2024-03-02T03:23:01;93360.75;;;8.67;100.00
61128;BME280;47013;42.664;23.242;2024-03-02T03:25:27;93346.53;;;8.63;100.00
61128;BME280;47013;42.664;23.242;2024-03-02T03:27:52;93349.25;;;8.63;100.00
61128;BME280;47013;42.664;23.242;2024-03-02T03:30:18;93357.28;;;8.66;100.00
61128;BME280;47013;42.664;23.242;2024-03-02T03:32:43;93360.34;;;8.68;100.00
61128;BME280;47013;42.664;23.242;2024-03-02T03:35:09;93361.13;;;8.69;100.00
61128;BME280;47013;42.664;23.242;2024-03-02T03:37:34;93358.06;;;8.67;100.00
61128;BME280;47013;42.664;23.242;2024-03-02T03:40:04;93354.25;;;8.64;100.00
61128;BME280;47013;42.664;23.242;2024-03-02T03:42:38;93358.13;;;8.63;100.00
61128;BME280;47013;42.664;23.242;2024-03-02T03:45:04;93354.66;;;8.63;100.00
61128;BME280;47013;42.664;23.242;2024-03-02T03:47:33;93354.66;;;8.63;100.00
61128;BME280;47013;42.664;23.242;2024-03-02T03:49:58;93359.59;;;8.68;100.00
61128;BME280;47013;42.664;23.242;2024-03-02T03:52:24;93356.88;;;8.68;100.00
61128;BME280;47013;42.664;23.242;2024-03-02T03:54:49;93349.53;;;8.68;100.00
61128;BME280;47013;42.664;23.242;2024-03-02T03:57:15;93355.00;;;8.65;100.00
61128;BME280;47013;42.664;23.242;2024-03-02T03:59:41;93360.06;;;8.63;100.00
61128;BME280;47013;42.664;23.242;2024-03-02T04:02:06;93352.03;;;8.55;100.00
61128;BME280;47013;42.664;23.242;2024-03-02T04:04:32;93352.06;;;8.52;100.00
61128;BME280;47013;42.664;23.242;2024-03-02T04:06:58;93354.09;;;8.44;100.00
61128;BME280;47013;42.664;23.242;2024-03-02T04:09:24;93364.50;;;8.46;100.00
61128;BME280;47013;42.664;23.242;2024-03-02T04:11:50;93354.56;;;8.39;100.00
61128;BME280;47013;42.664;23.242;2024-03-02T04:14:16;93357.25;;;8.39;100.00
61128;BME280;47013;42.664;23.242;2024-03-02T04:16:42;93349.22;;;8.36;100.00
61128;BME280;47013;42.664;23.242;2024-03-02T04:19:07;93355.72;;;8.38;100.00
61128;BME280;47013;42.664;23.242;2024-03-02T04:21:32;93361.53;;;8.37;100.00
61128;BME280;47013;42.664;23.242;2024-03-02T04:23:58;93358.03;;;8.40;100.00
61128;BME280;47013;42.664;23.242;2024-03-02T04:26:24;93358.44;;;8.38;100.00
61128;BME280;47013;42.664;23.242;2024-03-02T04:28:51;93351.91;;;8.36;100.00
61128;BME280;47013;42.664;23.242;2024-03-02T04:31:16;93359.56;;;8.41;100.00
61128;BME280;47013;42.664;23.242;2024-03-02T04:33:42;93364.19;;;8.40;100.00
61128;BME280;47013;42.664;23.242;2024-03-02T04:36:07;93360.72;;;8.40;100.00
61128;BME280;47013;42.664;23.242;2024-03-02T04:38:35;93354.19;;;8.37;100.00
61128;BME280;47013;42.664;23.242;2024-03-02T04:41:00;93370.75;;;8.39;100.00
61128;BME280;47013;42.664;23.242;2024-03-02T04:43:25;93361.91;;;8.39;100.00
61128;BME280;47013;42.664;23.242;2024-03-02T04:45:51;93365.41;;;8.36;100.00
61128;BME280;47013;42.664;23.242;2024-03-02T04:48:16;93367.72;;;8.37;100.00
61128;BME280;47013;42.664;23.242;2024-03-02T04:50:42;93368.13;;;8.36;100.00
61128;BME280;47013;42.664;23.242;2024-03-02T04:53:07;93371.19;;;8.38;100.00
61128;BME280;47013;42.664;23.242;2024-03-02T04:55:33;93366.94;;;8.37;100.00
61128;BME280;47013;42.664;23.242;2024-03-02T04:58:04;93370.00;;;8.39;100.00
61128;BME280;47013;42.664;23.242;2024-03-02T05:00:29;93374.22;;;8.40;100.00
61128;BME280;47013;42.664;23.242;2024-03-02T05:02:54;93373.88;;;8.38;100.00
61128;BME280;47013;42.664;23.242;2024-03-02T05:05:20;93376.16;;;8.39;100.00
61128;BME280;47013;42.664;23.242;2024-03-02T05:07:45;93380.41;;;8.40;100.00
61128;BME280;47013;42.664;23.242;2024-03-02T05:10:11;93367.72;;;8.34;100.00
61128;BME280;47013;42.664;23.242;2024-03-02T05:12:37;93371.56;;;8.33;100.00
61128;BME280;47013;42.664;23.242;2024-03-02T05:15:12;93383.56;;;8.35;100.00
61128;BME280;47013;42.664;23.242;2024-03-02T05:17:39;93380.44;;;8.37;100.00
61128;BME280;47013;42.664;23.242;2024-03-02T05:20:05;93385.50;;;8.35;100.00
61128;BME280;47013;42.664;23.242;2024-03-02T05:22:32;93390.50;;;8.36;100.00
61128;BME280;47013;42.664;23.242;2024-03-02T05:24:59;93388.97;;;8.35;100.00
61128;BME280;47013;42.664;23.242;2024-03-02T05:27:25;93392.84;;;8.34;100.00
61128;BME280;47013;42.664;23.242;2024-03-02T05:29:50;93390.84;;;8.38;100.00
61128;BME280;47013;42.664;23.242;2024-03-02T05:32:15;93386.63;;;8.37;100.00
61128;BME280;47013;42.664;23.242;2024-03-02T05:34:42;93392.38;;;8.39;100.00
61128;BME280;47013;42.664;23.242;2024-03-02T05:37:07;93396.59;;;8.40;100.00
61128;BME280;47013;42.664;23.242;2024-03-02T05:39:32;93397.38;;;8.41;100.00
61128;BME280;47013;42.664;23.242;2024-03-02T05:41:58;93403.94;;;8.40;100.00
61128;BME280;47013;42.664;23.242;2024-03-02T05:44:23;93404.31;;;8.42;100.00
61128;BME280;47013;42.664;23.242;2024-03-02T05:46:48;93402.78;;;8.41;100.00
61128;BME280;47013;42.664;23.242;2024-03-02T05:49:14;93407.81;;;8.39;100.00
61128;BME280;47013;42.664;23.242;2024-03-02T05:51:39;93407.81;;;8.39;100.00
61128;BME280;47013;42.664;23.242;2024-03-02T05:54:05;93410.06;;;8.44;100.00
61128;BME280;47013;42.664;23.242;2024-03-02T05:56:30;93404.66;;;8.44;100.00
61128;BME280;47013;42.664;23.242;2024-03-02T05:58:55;93412.41;;;8.42;100.00
61128;BME280;47013;42.664;23.242;2024-03-02T06:01:44;93400.84;;;8.41;100.00
61128;BME280;47013;42.664;23.242;2024-03-02T06:04:10;93400.47;;;8.39;100.00
61128;BME280;47013;42.664;23.242;2024-03-02T06:06:38;93410.41;;;8.46;100.00
61128;BME280;47013;42.664;23.242;2024-03-02T06:09:05;93404.25;;;8.45;100.00
61128;BME280;47013;42.664;23.242;2024-03-02T06:11:39;93410.81;;;8.44;100.00
61128;BME280;47013;42.664;23.242;2024-03-02T06:14:05;93410.03;;;8.47;100.00
61128;BME280;47013;42.664;23.242;2024-03-02T06:16:32;93418.88;;;8.51;100.00
61128;BME280;47013;42.664;23.242;2024-03-02T06:18:57;93411.88;;;8.54;100.00
61128;BME280;47013;42.664;23.242;2024-03-02T06:21:26;93418.81;;;8.55;100.00
61128;BME280;47013;42.664;23.242;2024-03-02T06:23:51;93413.00;;;8.56;100.00
61128;BME280;47013;42.664;23.242;2024-03-02T06:26:17;93418.38;;;8.60;100.00
61128;BME280;47013;42.664;23.242;2024-03-02T06:28:43;93412.16;;;8.63;100.00
61128;BME280;47013;42.664;23.242;2024-03-02T06:31:09;93417.97;;;8.62;100.00
61128;BME280;47013;42.664;23.242;2024-03-02T06:33:35;93420.75;;;8.54;100.00
61128;BME280;47013;42.664;23.242;2024-03-02T06:36:00;93421.63;;;8.44;100.00
61128;BME280;47013;42.664;23.242;2024-03-02T06:38:26;93417.00;;;8.45;100.00
61128;BME280;47013;42.664;23.242;2024-03-02T06:40:51;93419.44;;;8.36;100.00
61128;BME280;47013;42.664;23.242;2024-03-02T06:43:17;93423.66;;;8.37;100.00
61128;BME280;47013;42.664;23.242;2024-03-02T06:45:42;93420.50;;;8.42;100.00
61128;BME280;47013;42.664;23.242;2024-03-02T06:48:08;93429.66;;;8.51;100.00
61128;BME280;47013;42.664;23.242;2024-03-02T06:50:33;93431.16;;;8.56;100.00
61128;BME280;47013;42.664;23.242;2024-03-02T06:52:58;93427.63;;;8.59;100.00
61128;BME280;47013;42.664;23.242;2024-03-02T06:55:24;93428.81;;;8.58;100.00
61128;BME280;47013;42.664;23.242;2024-03-02T06:57:50;93430.84;;;8.50;100.00
61128;BME280;47013;42.664;23.242;2024-03-02T07:00:16;93436.25;;;8.50;100.00
61128;BME280;47013;42.664;23.242;2024-03-02T07:02:43;93430.44;;;8.52;100.00
61128;BME280;47013;42.664;23.242;2024-03-02T07:05:10;93440.47;;;8.51;100.00
61128;BME280;47013;42.664;23.242;2024-03-02T07:07:35;93442.06;;;8.45;100.00
61128;BME280;47013;42.664;23.242;2024-03-02T07:10:02;93440.59;;;8.41;100.00
61128;BME280;47013;42.664;23.242;2024-03-02T07:12:28;93440.59;;;8.41;100.00
61128;BME280;47013;42.664;23.242;2024-03-02T07:14:53;93445.19;;;8.44;100.00
61128;BME280;47013;42.664;23.242;2024-03-02T07:17:21;93444.81;;;8.42;100.00
61128;BME280;47013;42.664;23.242;2024-03-02T07:19:47;93444.06;;;8.41;100.00
61128;BME280;47013;42.664;23.242;2024-03-02T07:22:12;93442.56;;;8.37;100.00
61128;BME280;47013;42.664;23.242;2024-03-02T07:24:44;93441.59;;;8.54;100.00
61128;BME280;47013;42.664;23.242;2024-03-02T07:27:11;93445.53;;;8.49;100.00
61128;BME280;47013;42.664;23.242;2024-03-02T07:29:37;93446.34;;;8.46;100.00
61128;BME280;47013;42.664;23.242;2024-03-02T07:32:03;93442.84;;;8.46;100.00
61128;BME280;47013;42.664;23.242;2024-03-02T07:34:29;93443.22;;;8.48;100.00
61128;BME280;47013;42.664;23.242;2024-03-02T07:36:55;93448.38;;;8.35;100.00
61128;BME280;47013;42.664;23.242;2024-03-02T07:39:20;93463.41;;;8.33;100.00
61128;BME280;47013;42.664;23.242;2024-03-02T07:41:46;93451.44;;;8.37;100.00
61128;BME280;47013;42.664;23.242;2024-03-02T07:44:12;93456.03;;;8.40;100.00
61128;BME280;47013;42.664;23.242;2024-03-02T07:46:44;93456.00;;;8.44;100.00
61128;BME280;47013;42.664;23.242;2024-03-02T07:49:10;93454.75;;;8.52;100.00
61128;BME280;47013;42.664;23.242;2024-03-02T07:51:35;93461.97;;;8.62;100.00
61128;BME280;47013;42.664;23.242;2024-03-02T07:54:01;93464.16;;;8.74;100.00
61128;BME280;47013;42.664;23.242;2024-03-02T07:56:27;93468.75;;;8.77;100.00
61128;BME280;47013;42.664;23.242;2024-03-02T07:58:52;93462.97;;;8.75;100.00
61128;BME280;47013;42.664;23.242;2024-03-02T08:01:18;93454.81;;;8.45;100.00
61128;BME280;47013;42.664;23.242;2024-03-02T08:03:43;93453.75;;;8.39;100.00
61128;BME280;47013;42.664;23.242;2024-03-02T08:06:17;93464.28;;;8.64;100.00
61128;BME280;47013;42.664;23.242;2024-03-02T08:08:42;93460.88;;;8.56;100.00
61128;BME280;47013;42.664;23.242;2024-03-02T08:11:08;93466.63;;;8.62;100.00
61128;BME280;47013;42.664;23.242;2024-03-02T08:13:33;93466.50;;;8.69;100.00
61128;BME280;47013;42.664;23.242;2024-03-02T08:15:58;93469.56;;;8.71;100.00
61128;BME280;47013;42.664;23.242;2024-03-02T08:18:24;93469.56;;;8.74;100.00
61128;BME280;47013;42.664;23.242;2024-03-02T08:20:50;93472.97;;;8.78;100.00
61128;BME280;47013;42.664;23.242;2024-03-02T08:23:15;93471.75;;;8.83;100.00
61128;BME280;47013;42.664;23.242;2024-03-02T08:25:41;93475.09;;;8.94;100.00
61128;BME280;47013;42.664;23.242;2024-03-02T08:28:07;93469.25;;;8.99;100.00
61128;BME280;47013;42.664;23.242;2024-03-02T08:30:32;93473.56;;;8.93;100.00
61128;BME280;47013;42.664;23.242;2024-03-02T08:32:57;93458.22;;;8.83;100.00
61128;BME280;47013;42.664;23.242;2024-03-02T08:35:23;93469.03;;;8.83;100.00
61128;BME280;47013;42.664;23.242;2024-03-02T08:37:48;93464.91;;;8.75;100.00
61128;BME280;47013;42.664;23.242;2024-03-02T08:40:14;93463.56;;;8.60;100.00
61128;BME280;47013;42.664;23.242;2024-03-02T08:42:40;93467.25;;;8.39;100.00
61128;BME280;47013;42.664;23.242;2024-03-02T08:45:06;93468.63;;;8.54;100.00
61128;BME280;47013;42.664;23.242;2024-03-02T08:47:32;93470.38;;;8.68;100.00
61128;BME280;47013;42.664;23.242;2024-03-02T08:49:58;93467.69;;;8.68;100.00
61128;BME280;47013;42.664;23.242;2024-03-02T08:52:24;93474.84;;;8.81;100.00
61128;BME280;47013;42.664;23.242;2024-03-02T08:54:49;93470.56;;;8.84;100.00
61128;BME280;47013;42.664;23.242;2024-03-02T08:57:14;93465.91;;;8.88;100.00
61128;BME280;47013;42.664;23.242;2024-03-02T08:59:40;93482.78;;;8.99;100.00
61128;BME280;47013;42.664;23.242;2024-03-02T09:02:05;93474.31;;;8.94;100.00
61128;BME280;47013;42.664;23.242;2024-03-02T09:04:31;93478.13;;;9.00;100.00
61128;BME280;47013;42.664;23.242;2024-03-02T09:06:57;93476.34;;;9.16;100.00
61128;BME280;47013;42.664;23.242;2024-03-02T09:09:22;93475.84;;;9.25;100.00
61128;BME280;47013;42.664;23.242;2024-03-02T09:11:47;93487.78;;;9.28;100.00
61128;BME280;47013;42.664;23.242;2024-03-02T09:14:13;93483.78;;;9.09;100.00
61128;BME280;47013;42.664;23.242;2024-03-02T09:16:40;93485.38;;;9.06;100.00
61128;BME280;47013;42.664;23.242;2024-03-02T09:19:05;93490.34;;;9.11;100.00
61128;BME280;47013;42.664;23.242;2024-03-02T09:21:30;93492.22;;;9.14;100.00
61128;BME280;47013;42.664;23.242;2024-03-02T09:23:56;93488.28;;;9.19;100.00
61128;BME280;47013;42.664;23.242;2024-03-02T09:26:22;93496.47;;;9.42;100.00
61128;BME280;47013;42.664;23.242;2024-03-02T09:28:50;93492.88;;;9.49;100.00
61128;BME280;47013;42.664;23.242;2024-03-02T09:31:15;93497.72;;;9.65;100.00
61128;BME280;47013;42.664;23.242;2024-03-02T09:33:40;93493.34;;;9.71;100.00
61128;BME280;47013;42.664;23.242;2024-03-02T09:36:16;93500.59;;;9.78;100.00
61128;BME280;47013;42.664;23.242;2024-03-02T09:38:42;93502.94;;;9.75;100.00
61128;BME280;47013;42.664;23.242;2024-03-02T09:41:07;93496.81;;;9.71;100.00
61128;BME280;47013;42.664;23.242;2024-03-02T09:43:32;93502.75;;;9.63;100.00
61128;BME280;47013;42.664;23.242;2024-03-02T09:45:58;93501.88;;;9.69;100.00
61128;BME280;47013;42.664;23.242;2024-03-02T09:48:23;93501.81;;;9.73;100.00
61128;BME280;47013;42.664;23.242;2024-03-02T09:50:49;93494.47;;;9.73;100.00
61128;BME280;47013;42.664;23.242;2024-03-02T09:53:14;93500.13;;;9.83;100.00
61128;BME280;47013;42.664;23.242;2024-03-02T09:55:40;93497.38;;;9.86;100.00
61128;BME280;47013;42.664;23.242;2024-03-02T09:58:09;93498.09;;;9.90;100.00
61128;BME280;47013;42.664;23.242;2024-03-02T10:00:34;93499.63;;;9.91;100.00
61128;BME280;47013;42.664;23.242;2024-03-02T10:02:59;93495.38;;;9.90;100.00
61128;BME280;47013;42.664;23.242;2024-03-02T10:05:27;93505.31;;;9.97;100.00
61128;BME280;47013;42.664;23.242;2024-03-02T10:08:00;93504.84;;;10.02;100.00
61128;BME280;47013;42.664;23.242;2024-03-02T10:10:38;93502.50;;;10.04;100.00
61128;BME280;47013;42.664;23.242;2024-03-02T10:13:08;93502.63;;;9.97;100.00
61128;BME280;47013;42.664;23.242;2024-03-02T10:15:34;93499.63;;;9.91;100.00
61128;BME280;47013;42.664;23.242;2024-03-02T10:17:59;93498.47;;;9.89;100.00
61128;BME280;47013;42.664;23.242;2024-03-02T10:20:25;93503.44;;;9.94;100.00
61128;BME280;47013;42.664;23.242;2024-03-02T10:22:51;93498.38;;;9.96;100.00
61128;BME280;47013;42.664;23.242;2024-03-02T10:25:37;93504.13;;;9.98;100.00
61128;BME280;47013;42.664;23.242;2024-03-02T10:28:03;93497.47;;;10.02;100.00
61128;BME280;47013;42.664;23.242;2024-03-02T10:30:31;93498.28;;;10.03;100.00
61128;BME280;47013;42.664;23.242;2024-03-02T10:32:56;93497.09;;;10.04;100.00
61128;BME280;47013;42.664;23.242;2024-03-02T10:35:22;93491.59;;;10.08;100.00
61128;BME280;47013;42.664;23.242;2024-03-02T10:37:51;93495.75;;;10.16;100.00
61128;BME280;47013;42.664;23.242;2024-03-02T10:40:18;93489.25;;;10.10;100.00
61128;BME280;47013;42.664;23.242;2024-03-02T10:42:45;93495.78;;;10.12;100.00
61128;BME280;47013;42.664;23.242;2024-03-02T10:45:11;93490.38;;;10.12;100.00
61128;BME280;47013;42.664;23.242;2024-03-02T10:47:38;93488.06;;;10.11;100.00
61128;BME280;47013;42.664;23.242;2024-03-02T10:50:05;93486.88;;;10.12;100.00
61128;BME280;47013;42.664;23.242;2024-03-02T10:52:37;93485.28;;;10.14;100.00
61128;BME280;47013;42.664;23.242;2024-03-02T10:55:03;93482.41;;;10.01;100.00
61128;BME280;47013;42.664;23.242;2024-03-02T10:57:42;93467.41;;;9.97;100.00
61128;BME280;47013;42.664;23.242;2024-03-02T11:00:12;93482.72;;;10.07;100.00
61128;BME280;47013;42.664;23.242;2024-03-02T11:02:46;93482.31;;;10.09;100.00
61128;BME280;47013;42.664;23.242;2024-03-02T11:05:18;93479.16;;;9.87;100.00
61128;BME280;47013;42.664;23.242;2024-03-02T11:07:46;93476.53;;;9.83;100.00
61128;BME280;47013;42.664;23.242;2024-03-02T11:10:12;93475.75;;;9.83;100.00
61128;BME280;47013;42.664;23.242;2024-03-02T11:12:53;93479.41;;;9.72;100.00
61128;BME280;47013;42.664;23.242;2024-03-02T11:15:24;93478.94;;;9.78;100.00
61128;BME280;47013;42.664;23.242;2024-03-02T11:17:51;93470.34;;;9.83;100.00
61128;BME280;47013;42.664;23.242;2024-03-02T11:20:17;93481.06;;;9.90;100.00
61128;BME280;47013;42.664;23.242;2024-03-02T11:22:44;93473.34;;;9.88;100.00
61128;BME280;47013;42.664;23.242;2024-03-02T11:25:26;93471.78;;;9.91;100.00
61128;BME280;47013;42.664;23.242;2024-03-02T11:33:01;93473.75;;;10.10;100.00
61128;BME280;47013;42.664;23.242;2024-03-02T11:35:32;93466.41;;;10.11;100.00
61128;BME280;47013;42.664;23.242;2024-03-02T11:37:58;93468.66;;;10.16;100.00
61128;BME280;47013;42.664;23.242;2024-03-02T11:40:28;93470.94;;;10.17;100.00
61128;BME280;47013;42.664;23.242;2024-03-02T11:42:54;93468.16;;;10.21;100.00
61128;BME280;47013;42.664;23.242;2024-03-02T11:45:24;93472.22;;;10.09;100.00
61128;BME280;47013;42.664;23.242;2024-03-02T11:47:50;93468.59;;;9.96;100.00
61128;BME280;47013;42.664;23.242;2024-03-02T11:50:35;93469.59;;;9.82;100.00
61128;BME280;47013;42.664;23.242;2024-03-02T11:53:03;93475.47;;;9.77;100.00
61128;BME280;47013;42.664;23.242;2024-03-02T11:55:37;93458.72;;;9.59;100.00
61128;BME280;47013;42.664;23.242;2024-03-02T11:58:03;93466.41;;;9.64;100.00
61128;BME280;47013;42.664;23.242;2024-03-02T12:00:29;93467.47;;;9.70;100.00
61128;BME280;47013;42.664;23.242;2024-03-02T12:03:06;93465.50;;;9.70;100.00
61128;BME280;47013;42.664;23.242;2024-03-02T12:05:32;93468.50;;;9.76;100.00
61128;BME280;47013;42.664;23.242;2024-03-02T12:07:59;93465.44;;;9.74;100.00
61128;BME280;47013;42.664;23.242;2024-03-02T12:10:25;93462.72;;;9.78;100.00
61128;BME280;47013;42.664;23.242;2024-03-02T12:13:02;93471.59;;;9.78;100.00
61128;BME280;47013;42.664;23.242;2024-03-02T12:15:33;93467.28;;;9.81;100.00
61128;BME280;47013;42.664;23.242;2024-03-02T12:18:00;93468.56;;;9.72;100.00
61128;BME280;47013;42.664;23.242;2024-03-02T12:20:27;93470.56;;;9.68;100.00
61128;BME280;47013;42.664;23.242;2024-03-02T12:22:55;93469.41;;;9.69;100.00
61128;BME280;47013;42.664;23.242;2024-03-02T12:25:22;93469.41;;;9.69;100.00
61128;BME280;47013;42.664;23.242;2024-03-02T12:27:49;93472.00;;;9.77;100.00
61128;BME280;47013;42.664;23.242;2024-03-02T12:30:16;93467.81;;;9.72;100.00
61128;BME280;47013;42.664;23.242;2024-03-02T12:32:42;93468.56;;;9.72;100.00
61128;BME280;47013;42.664;23.242;2024-03-02T12:35:07;93462.22;;;9.83;100.00
61128;BME280;47013;42.664;23.242;2024-03-02T12:37:33;93461.28;;;9.93;100.00
61128;BME280;47013;42.664;23.242;2024-03-02T12:39:58;93463.94;;;9.96;100.00
61128;BME280;47013;42.664;23.242;2024-03-02T12:42:24;93456.09;;;10.02;100.00
61128;BME280;47013;42.664;23.242;2024-03-02T12:44:52;93464.03;;;10.13;100.00
61128;BME280;47013;42.664;23.242;2024-03-02T12:47:20;93470.88;;;10.21;100.00
61128;BME280;47013;42.664;23.242;2024-03-02T12:49:46;93468.06;;;10.28;100.00
61128;BME280;47013;42.664;23.242;2024-03-02T12:52:15;93465.72;;;10.30;100.00
61128;BME280;47013;42.664;23.242;2024-03-02T12:54:40;93472.94;;;10.37;100.00